WEATHER DATA

TODAY
Time Temp. Dewp. Hum. Bar.
00:07 5.8 0.4 68 1014
00:18 5.7 0.3 68 1014
00:27 5.7 0.3 68 1014
00:37 5.6 0.4 69 1013.9
00:48 5.5 0.3 69 1014
00:58 5.4 0.2 69 1013.9
01:07 5.3 0.1 69 1013.9
01:18 5.3 0.3 70 1014
01:28 5.2 0.2 70 1014
01:38 5.1 0.1 70 1013.9
01:47 5.1 0.3 71 1013.9
01:58 5 0.2 71 1013.8
02:08 5 0.2 71 1013.8
02:18 4.9 0.1 71 1013.8
02:28 4.9 0.3 72 1013.9
02:38 4.9 0.3 72 1013.9
02:48 4.8 0.2 72 1014
02:57 4.8 0.2 72 1013.9
03:08 4.8 0.4 73 1014
03:18 4.7 0.3 73 1014
03:28 4.6 0.2 73 1014
03:38 4.4 0 73 1014
03:48 4.3 -0.1 73 1014.1
03:58 4.3 -0.1 73 1014.1
04:08 4.4 0.2 74 1014.1
04:18 4.6 0.4 74 1014.1
04:28 4.8 0.6 74 1014.2
04:38 4.9 0.8 75 1014.3
04:49 5 0.9 75 1014.3
04:58 5.1 1 75 1014.4
05:08 5.2 1.1 75 1014.4
05:18 5.3 1.4 76 1014.5
05:29 5.5 1.6 76 1014.5
05:38 5.6 1.7 76 1014.6
05:48 5.7 1.8 76 1014.7
05:59 5.9 2.2 77 1014.7
06:09 5.9 2.2 77 1014.8
06:18 6 2.3 77 1014.8
06:29 6.1 2.6 78 1014.8
06:39 6.2 2.7 78 1014.6
06:48 6.3 2.9 79 1014.7
06:58 6.1 2.7 79 1015
07:09 6.1 2.7 79 1015.1
07:19 6.1 2.7 79 1015.3
07:28 6.2 3 80 1015.4
07:39 6.2 3 80 1015.5
07:49 6.3 3.1 80 1015.6
07:59 6.3 3.3 81 1015.8
08:09 6.4 3.4 81 1015.9
08:19 6.4 3.4 81 1015.9
08:29 6.5 3.5 81 1016
08:39 6.5 3.5 81 1016.1
08:49 6.6 3.8 82 1016.3
08:59 6.7 3.8 82 1016.3
09:09 6.8 3.9 82 1016.6
09:19 7 4.1 82 1016.7
09:29 7.2 4.3 82 1016.8
09:39 7.3 4.6 83 1017
09:49 7.5 4.8 83 1017
10:00 7.7 5 83 1017.1
10:09 7.9 5.2 83 1017.2
10:19 8 5.3 83 1017.3
10:30 8.3 5.6 83 1017.3
10:40 8.5 5.8 83 1017.3
10:49 8.7 6 83 1017.3
10:59 9 6.3 83 1017.3
11:10 9.2 6.5 83 1017.2
11:20 9.5 6.8 83 1017.3
11:29 9.8 6.9 82 1017.3
11:40 10 7.1 82 1017.3
11:50 10.2 7.1 81 1017.4
11:59 10.5 7.2 80 1017.3
12:09 10.8 7.3 79 1017.3
12:20 10.9 7 77 1017.2
12:30 11 6.7 75 1017.2
12:40 11.1 6.4 73 1017
12:50 11.2 6.1 71 1017.1
13:00 11.2 5.9 70 1017.1
13:10 11.3 5.6 68 1017
13:20 11.4 5.5 67 1017
13:30 11.6 5.3 65 1017
13:40 11.9 5.3 64 1017
13:50 12.1 5.3 63 1016.9
14:00 12.3 5 61 1017
14:10 12.5 5.2 61 1017
14:20 12.5 5 60 1017
14:30 12.3 4.8 60 1017
14:40 12.3 4.5 59 1017
14:50 12.6 4.8 59 1017
15:00 12.8 4.8 58 1017.1
15:11 12.8 4.5 57 1017.2
15:20 12.5 4.2 57 1017.1
15:30 12.3 4 57 1017.2
15:41 12.2 3.9 57 1017.2
15:51 12.4 4.1 57 1017.2
16:00 12.4 3.9 56 1017.3
16:10 12.2 3.9 57 1017.2
16:21 12.2 3.9 57 1017.2
16:31 12 3.8 57 1017.3
16:40 11.9 3.7 57 1017.3
16:51 11.7 3.5 57 1017.3
17:01 11.6 3.6 58 1017.3
17:11 11.5 3.5 58 1017.4
17:21 11.4 3.4 58 1017.4
17:31 11.3 3.3 58 1017.4
17:41 11.1 3.4 59 1017.5
17:51 11 3.3 59 1017.6
18:01 10.7 3.3 60 1017.7

DAY STATISTIC

2019-02-19
TEMPERATURE
AVERAGE
8.1
HIGH
12.8
15:00
LOW
4.3
03:48
PRESSURE
AVERAGE
1015.9
HIGH
1017.7
18:01
LOW
1013.8
01:58
DEWPOINT
AVERAGE
3.2
HIGH
7.3
12:09
LOW
-0.1
03:48
HUMIDITY
AVERAGE
72
HIGH
83
09:39
LOW
56
16:00
TEMPERATURE (°C)
LOW
4.3
HIGH
12.8
AVERAGE
8.1
PRESSURE (hpa)
LOW
1013.8
HIGH
1017.7
AVERAGE
1015.9
DEVICE